createdAt,value
2022-10-14T00:01:12.909Z,13.52
2022-10-14T00:03:39.692Z,12.61
2022-10-14T00:06:07.894Z,13.51
2022-10-14T00:08:34.422Z,13.65
2022-10-14T00:11:09.237Z,13.52
2022-10-14T00:13:35.657Z,13.43
2022-10-14T00:16:02.962Z,13.43
2022-10-14T00:18:29.223Z,12.77
2022-10-14T00:21:00.597Z,13.33
2022-10-14T00:23:26.961Z,13.29
2022-10-14T00:25:53.359Z,13.15
2022-10-14T00:28:19.710Z,12.29
2022-10-14T00:30:59.604Z,13.26
2022-10-14T00:33:26.894Z,13.38
2022-10-14T00:36:01.202Z,13.41
2022-10-14T00:38:27.386Z,13.40
2022-10-14T00:40:54.850Z,13.43
2022-10-14T00:43:22.236Z,13.47
2022-10-14T00:45:48.424Z,13.37
2022-10-14T00:48:15.070Z,13.34
2022-10-14T00:50:43.170Z,13.27
2022-10-14T00:53:11.089Z,12.41
2022-10-14T00:55:38.142Z,12.89
2022-10-14T00:58:04.779Z,13.02
2022-10-14T01:00:31.135Z,13.08
2022-10-14T01:02:57.342Z,13.27
2022-10-14T01:05:24.080Z,13.23
2022-10-14T01:08:09.100Z,13.10
2022-10-14T01:10:42.554Z,13.24
2022-10-14T01:13:38.967Z,13.45
2022-10-14T01:16:29.983Z,13.20
2022-10-14T01:19:01.850Z,13.23
2022-10-14T01:21:38.067Z,13.30
2022-10-14T01:24:13.130Z,13.28
2022-10-14T01:27:03.994Z,13.17
2022-10-14T01:29:48.706Z,13.11
2022-10-14T01:32:37.911Z,13.53
2022-10-14T01:35:10.134Z,13.45
2022-10-14T01:37:38.188Z,13.34
2022-10-14T01:40:20.373Z,13.20
2022-10-14T01:42:46.995Z,13.24
2022-10-14T01:45:19.020Z,13.47
2022-10-14T01:47:48.248Z,12.99
2022-10-14T01:50:16.487Z,13.53
2022-10-14T01:52:55.766Z,13.22
2022-10-14T01:55:25.372Z,13.32
2022-10-14T01:57:53.473Z,13.55
2022-10-14T02:00:19.514Z,13.51
2022-10-14T02:02:45.574Z,13.26
2022-10-14T02:05:28.425Z,13.53
2022-10-14T02:08:04.335Z,13.61
2022-10-14T02:10:51.125Z,12.14
2022-10-14T02:13:34.139Z,13.42
2022-10-14T02:16:14.101Z,13.35
2022-10-14T02:18:55.911Z,13.10
2022-10-14T02:21:42.143Z,13.17
2022-10-14T02:24:22.189Z,13.31
2022-10-14T02:26:49.357Z,13.42
2022-10-14T02:29:17.697Z,13.16
2022-10-14T02:31:44.927Z,13.30
2022-10-14T02:34:12.168Z,13.46
2022-10-14T02:36:38.481Z,13.46
2022-10-14T02:39:05.854Z,13.42
2022-10-14T02:41:34.610Z,13.38
2022-10-14T02:44:00.950Z,13.31
2022-10-14T02:46:28.369Z,11.84
2022-10-14T02:48:54.396Z,13.51
2022-10-14T02:51:20.394Z,13.53
2022-10-14T02:53:46.380Z,13.21
2022-10-14T02:56:13.259Z,13.22
2022-10-14T02:58:39.616Z,13.33
2022-10-14T03:01:05.801Z,13.31
2022-10-14T03:03:31.892Z,12.88
2022-10-14T03:05:57.921Z,13.05
2022-10-14T03:08:23.988Z,13.11
2022-10-14T03:10:50.027Z,13.08
2022-10-14T03:13:16.104Z,13.06
2022-10-14T03:15:42.241Z,13.05
2022-10-14T03:18:08.237Z,13.07
2022-10-14T03:20:34.340Z,13.15
2022-10-14T03:23:00.362Z,13.27
2022-10-14T03:25:27.117Z,13.31
2022-10-14T03:27:53.128Z,13.35
2022-10-14T03:30:19.115Z,13.25
2022-10-14T03:32:45.127Z,12.94
2022-10-14T03:35:11.229Z,13.16
2022-10-14T03:37:37.268Z,13.34
2022-10-14T03:40:03.618Z,13.34
2022-10-14T03:42:29.627Z,13.31
2022-10-14T03:44:55.657Z,13.15
2022-10-14T03:47:21.699Z,13.19
2022-10-14T03:49:47.714Z,13.25
2022-10-14T03:52:13.710Z,13.18
2022-10-14T03:54:39.741Z,12.49
2022-10-14T03:57:05.742Z,12.58
2022-10-14T03:59:31.771Z,13.20
2022-10-14T04:01:57.832Z,13.22
2022-10-14T04:04:23.917Z,13.25
2022-10-14T04:06:50.117Z,13.22
2022-10-14T04:09:16.170Z,13.36
2022-10-14T04:11:42.181Z,13.30
2022-10-14T04:14:08.408Z,13.30
2022-10-14T04:16:34.423Z,13.34
2022-10-14T04:19:00.456Z,13.22
2022-10-14T04:21:26.570Z,13.23
2022-10-14T04:23:52.699Z,13.17
2022-10-14T04:26:18.694Z,13.14
2022-10-14T04:28:44.779Z,12.94
2022-10-14T04:31:10.858Z,12.89
2022-10-14T04:33:36.930Z,13.01
2022-10-14T04:36:05.520Z,12.99
2022-10-14T04:38:32.509Z,13.15
2022-10-14T04:40:58.774Z,12.67
2022-10-14T04:43:24.855Z,12.98
2022-10-14T04:45:50.921Z,12.86
2022-10-14T04:48:17.605Z,12.99
2022-10-14T04:50:43.780Z,13.05
2022-10-14T04:53:13.661Z,13.16
2022-10-14T04:55:40.539Z,13.08
2022-10-14T04:58:06.662Z,13.23
2022-10-14T05:00:32.722Z,13.16
2022-10-14T05:02:58.760Z,13.27
2022-10-14T05:05:24.779Z,13.32
2022-10-14T05:07:50.881Z,12.95
2022-10-14T05:10:16.971Z,13.29
2022-10-14T05:12:43.014Z,13.21
2022-10-14T05:15:09.426Z,13.26
2022-10-14T05:17:36.928Z,13.41
2022-10-14T05:20:03.781Z,13.00
2022-10-14T05:22:29.786Z,13.19
2022-10-14T05:24:55.977Z,13.17
2022-10-14T05:27:22.221Z,12.08
2022-10-14T05:29:48.223Z,13.05
2022-10-14T05:32:15.295Z,13.09
2022-10-14T05:34:41.412Z,13.21
2022-10-14T05:37:07.561Z,13.30
2022-10-14T05:39:33.566Z,13.33
2022-10-14T05:41:59.616Z,13.34
2022-10-14T05:44:25.632Z,13.38
2022-10-14T05:46:51.638Z,13.42
2022-10-14T05:49:17.699Z,13.43
2022-10-14T05:51:43.766Z,13.42
2022-10-14T05:54:10.763Z,13.14
2022-10-14T05:56:36.913Z,13.35
2022-10-14T05:59:03.393Z,13.35
2022-10-14T06:01:30.841Z,13.38
2022-10-14T06:03:56.854Z,13.28
2022-10-14T06:06:28.017Z,13.44
2022-10-14T06:08:55.903Z,13.29
2022-10-14T06:11:21.920Z,12.08
2022-10-14T06:13:47.937Z,13.49
2022-10-14T06:16:13.968Z,13.37
2022-10-14T06:18:40.046Z,13.48
2022-10-14T06:21:06.871Z,13.40
2022-10-14T06:23:32.967Z,13.41
2022-10-14T06:26:03.349Z,13.38
2022-10-14T06:28:29.582Z,13.25
2022-10-14T06:30:55.662Z,13.06
2022-10-14T06:33:22.031Z,13.10
2022-10-14T06:35:48.461Z,12.90
2022-10-14T06:38:14.758Z,13.25
2022-10-14T06:40:40.872Z,13.26
2022-10-14T06:43:07.001Z,13.30
2022-10-14T06:45:33.038Z,13.35
2022-10-14T06:47:59.031Z,13.16
2022-10-14T06:50:25.218Z,13.36
2022-10-14T06:52:51.231Z,13.39
2022-10-14T06:55:17.381Z,13.49
2022-10-14T06:57:43.504Z,13.36
2022-10-14T07:00:10.256Z,13.50
2022-10-14T07:02:39.596Z,13.40
2022-10-14T07:05:05.847Z,12.35
2022-10-14T07:07:32.461Z,13.46
2022-10-14T07:09:58.496Z,13.52
2022-10-14T07:12:25.503Z,13.36
2022-10-14T07:14:51.654Z,13.56
2022-10-14T07:17:17.706Z,13.47
2022-10-14T07:19:43.757Z,13.44
2022-10-14T07:22:09.788Z,13.49
2022-10-14T07:24:35.783Z,13.00
2022-10-14T07:29:29.842Z,13.61
2022-10-14T07:31:55.956Z,13.70
2022-10-14T07:34:22.063Z,13.70
2022-10-14T07:36:48.089Z,13.82
2022-10-14T07:39:14.108Z,13.67
2022-10-14T07:41:40.204Z,13.43
2022-10-14T07:44:08.675Z,13.58
2022-10-14T07:46:37.711Z,13.57
2022-10-14T07:49:10.138Z,13.60
2022-10-14T07:51:37.003Z,13.54
2022-10-14T07:54:05.201Z,13.71
2022-10-14T07:56:31.216Z,13.82
2022-10-14T07:58:57.807Z,13.73
2022-10-14T08:01:23.966Z,12.23
2022-10-14T08:03:51.128Z,13.52
2022-10-14T08:06:17.171Z,13.47
2022-10-14T08:08:43.429Z,13.77
2022-10-14T08:11:13.112Z,13.77
2022-10-14T08:13:43.273Z,13.83
2022-10-14T08:16:17.902Z,13.84
2022-10-14T08:18:44.920Z,13.74
2022-10-14T08:21:11.161Z,13.93
2022-10-14T08:23:37.211Z,13.92
2022-10-14T08:26:03.266Z,13.87
2022-10-14T08:28:29.481Z,13.93
2022-10-14T08:30:55.513Z,13.81
2022-10-14T08:33:21.558Z,13.10
2022-10-14T08:35:51.650Z,13.45
2022-10-14T08:38:24.397Z,13.74
2022-10-14T08:41:16.349Z,13.71
2022-10-14T08:44:09.786Z,13.75
2022-10-14T08:46:40.721Z,13.89
2022-10-14T08:49:17.368Z,13.79
2022-10-14T08:51:47.786Z,13.89
2022-10-14T08:54:18.514Z,13.96
2022-10-14T08:56:44.739Z,13.80
2022-10-14T08:59:15.398Z,13.87
2022-10-14T09:01:53.043Z,13.92
2022-10-14T09:04:19.686Z,13.73
2022-10-14T09:06:47.970Z,13.87
2022-10-14T09:09:19.852Z,14.12
2022-10-14T09:11:50.127Z,14.19
2022-10-14T09:14:19.287Z,14.14
2022-10-14T09:16:50.358Z,12.98
2022-10-14T09:19:28.933Z,14.32
2022-10-14T09:21:55.179Z,14.28
2022-10-14T09:24:24.901Z,14.25
2022-10-14T09:29:32.116Z,14.33
2022-10-14T09:32:08.564Z,14.25
2022-10-14T09:34:45.043Z,14.25
2022-10-14T09:37:35.890Z,14.27
2022-10-14T09:40:07.869Z,14.46
2022-10-14T09:42:57.739Z,14.43
2022-10-14T09:45:24.975Z,14.32
2022-10-14T09:47:53.376Z,14.45
2022-10-14T09:50:24.561Z,14.38
2022-10-14T09:52:53.774Z,14.37
2022-10-14T09:55:20.892Z,14.23
2022-10-14T09:57:47.072Z,14.26
2022-10-14T10:00:26.532Z,14.05
2022-10-14T10:02:54.491Z,14.33
2022-10-14T10:05:26.954Z,14.38
2022-10-14T10:08:25.973Z,14.39
2022-10-14T10:11:06.510Z,14.32
2022-10-14T10:13:40.759Z,13.98
2022-10-14T10:16:18.955Z,14.49
2022-10-14T10:18:44.986Z,14.50
2022-10-14T10:21:37.179Z,14.53
2022-10-14T10:24:11.899Z,14.51
2022-10-14T10:26:37.910Z,14.59
2022-10-14T10:29:04.832Z,14.50
2022-10-14T10:32:05.801Z,14.52
2022-10-14T10:34:40.889Z,14.38
2022-10-14T10:37:26.351Z,14.39
2022-10-14T10:40:01.572Z,14.44
2022-10-14T10:42:48.065Z,14.43
2022-10-14T10:45:25.985Z,14.54
2022-10-14T10:48:00.980Z,14.48
2022-10-14T10:50:45.784Z,14.42
2022-10-14T10:53:39.119Z,14.56
2022-10-14T10:56:14.895Z,14.64
2022-10-14T10:58:40.937Z,14.73
2022-10-14T11:01:31.446Z,14.64
2022-10-14T11:04:12.967Z,14.66
2022-10-14T11:07:10.301Z,14.78
2022-10-14T11:09:59.628Z,14.78
2022-10-14T11:12:38.817Z,14.90
2022-10-14T11:15:23.617Z,14.87
2022-10-14T11:18:16.361Z,14.90
2022-10-14T11:20:51.940Z,14.79
2022-10-14T11:23:34.070Z,14.96
2022-10-14T11:26:30.968Z,14.97
2022-10-14T11:29:12.176Z,14.97
2022-10-14T11:32:23.967Z,14.62
2022-10-14T11:35:22.214Z,14.86
2022-10-14T11:38:03.231Z,14.99
2022-10-14T11:40:39.176Z,14.94
2022-10-14T11:43:38.967Z,14.91
2022-10-14T11:46:12.571Z,15.02
2022-10-14T11:48:38.595Z,15.17
2022-10-14T11:51:12.123Z,15.14
2022-10-14T11:54:11.962Z,15.20
2022-10-14T11:56:45.015Z,14.51
2022-10-14T11:59:37.497Z,15.18
2022-10-14T12:02:30.950Z,15.33
2022-10-14T12:05:09.632Z,15.42
2022-10-14T12:07:40.384Z,15.15
2022-10-14T12:10:19.246Z,15.59
2022-10-14T12:12:45.343Z,15.54
2022-10-14T12:15:22.735Z,15.42
2022-10-14T12:17:58.965Z,15.34
2022-10-14T12:20:49.347Z,15.41
2022-10-14T12:23:26.911Z,15.54
2022-10-14T12:26:21.771Z,15.47
2022-10-14T12:28:48.363Z,15.41
2022-10-14T12:31:21.683Z,15.55
2022-10-14T12:34:16.058Z,15.67
2022-10-14T12:36:43.847Z,15.38
2022-10-14T12:39:16.078Z,15.64
2022-10-14T12:41:55.697Z,15.76
2022-10-14T12:44:23.557Z,15.70
2022-10-14T12:46:51.377Z,15.51
2022-10-14T12:49:21.324Z,15.50
2022-10-14T12:51:55.053Z,15.71
2022-10-14T12:54:21.671Z,16.06
2022-10-14T12:57:00.885Z,16.20
2022-10-14T12:59:32.181Z,16.17
2022-10-14T13:02:04.087Z,16.04
2022-10-14T13:04:31.268Z,16.25
2022-10-14T13:07:35.338Z,16.13
2022-10-14T13:10:35.337Z,16.09
2022-10-14T13:13:41.036Z,15.93
2022-10-14T13:16:25.577Z,15.96
2022-10-14T13:18:59.060Z,14.67
2022-10-14T13:21:51.939Z,15.92
2022-10-14T13:24:27.129Z,15.91
2022-10-14T13:26:53.203Z,15.87
2022-10-14T13:29:19.155Z,15.94
2022-10-14T13:32:04.469Z,15.85
2022-10-14T13:34:53.118Z,15.92
2022-10-14T13:37:35.262Z,16.03
2022-10-14T13:43:12.547Z,15.94
2022-10-14T13:45:45.338Z,15.84
2022-10-14T13:48:30.152Z,15.88
2022-10-14T13:51:24.259Z,15.76
2022-10-14T13:54:07.916Z,15.75
2022-10-14T13:56:34.298Z,15.90
2022-10-14T13:59:00.331Z,15.86
2022-10-14T14:01:33.179Z,15.79
2022-10-14T14:03:59.364Z,15.88
2022-10-14T14:06:32.302Z,15.76
2022-10-14T14:09:07.232Z,15.75
2022-10-14T14:11:36.163Z,15.74
2022-10-14T14:14:03.679Z,15.14
2022-10-14T14:16:54.449Z,15.76
2022-10-14T14:19:32.756Z,15.84
2022-10-14T14:22:27.870Z,15.91
2022-10-14T14:25:34.087Z,15.86
2022-10-14T14:28:02.701Z,15.73
2022-10-14T14:30:36.904Z,14.69
2022-10-14T14:33:07.068Z,15.80
2022-10-14T14:35:33.308Z,15.72
2022-10-14T14:37:59.688Z,15.75
2022-10-14T14:40:27.952Z,15.74
2022-10-14T14:43:03.934Z,15.37
2022-10-14T14:45:36.693Z,15.68
2022-10-14T14:48:04.677Z,15.40
2022-10-14T14:50:38.101Z,15.68
2022-10-14T14:53:10.382Z,15.76
2022-10-14T14:55:59.616Z,15.81
2022-10-14T14:58:29.320Z,15.80
2022-10-14T15:00:55.853Z,15.77
2022-10-14T15:03:23.958Z,15.62
2022-10-14T15:05:52.612Z,15.65
2022-10-14T15:08:22.815Z,15.59
2022-10-14T15:10:49.708Z,15.64
2022-10-14T15:13:46.723Z,15.57
2022-10-14T15:16:12.821Z,15.21
2022-10-14T15:18:41.853Z,15.62
2022-10-14T15:21:10.867Z,15.57
2022-10-14T15:23:40.209Z,15.56
2022-10-14T15:26:21.990Z,15.56
2022-10-14T15:29:07.481Z,15.35
2022-10-14T15:31:34.754Z,15.30
2022-10-14T15:34:01.019Z,15.39
2022-10-14T15:36:29.831Z,14.34
2022-10-14T15:38:57.806Z,15.44
2022-10-14T15:41:24.426Z,15.21
2022-10-14T15:43:50.459Z,15.20
2022-10-14T15:46:35.349Z,15.07
2022-10-14T15:49:04.755Z,15.21
2022-10-14T15:51:31.184Z,15.24
2022-10-14T15:53:57.417Z,15.16
2022-10-14T15:56:23.631Z,15.26
2022-10-14T15:58:49.686Z,14.91
2022-10-14T16:01:20.985Z,15.27
2022-10-14T16:03:48.179Z,15.19
2022-10-14T16:06:16.198Z,14.07
2022-10-14T16:08:42.240Z,14.98
2022-10-14T16:11:28.157Z,14.89
2022-10-14T16:13:54.667Z,13.93
2022-10-14T16:16:24.931Z,14.86
2022-10-14T16:18:51.796Z,14.69
2022-10-14T16:21:17.866Z,14.80
2022-10-14T16:23:44.609Z,14.80
2022-10-14T16:26:13.105Z,14.68
2022-10-14T16:28:39.534Z,14.71
2022-10-14T16:31:05.639Z,14.76
2022-10-14T16:33:31.870Z,14.72
2022-10-14T16:35:59.483Z,14.77
2022-10-14T16:38:25.622Z,14.63
2022-10-14T16:40:59.613Z,14.62
2022-10-14T16:43:26.167Z,14.77
2022-10-14T16:45:52.479Z,14.29
2022-10-14T16:48:18.662Z,14.73
2022-10-14T16:50:51.629Z,14.78
2022-10-14T16:53:37.364Z,14.86
2022-10-14T16:56:24.284Z,14.50
2022-10-14T16:58:50.376Z,14.77
2022-10-14T17:01:16.405Z,14.76
2022-10-14T17:03:42.461Z,13.95
2022-10-14T17:06:08.474Z,14.53
2022-10-14T17:08:34.477Z,14.96
2022-10-14T17:11:00.488Z,14.83
2022-10-14T17:13:26.526Z,14.71
2022-10-14T17:16:01.246Z,14.83
2022-10-14T17:18:33.691Z,14.98
2022-10-14T17:21:09.891Z,15.02
2022-10-14T17:23:36.577Z,15.16
2022-10-14T17:26:04.540Z,15.18
2022-10-14T17:28:31.404Z,15.22
2022-10-14T17:30:58.247Z,15.14
2022-10-14T17:33:25.360Z,15.21
2022-10-14T17:35:59.239Z,15.18
2022-10-14T17:38:26.782Z,15.07
2022-10-14T17:40:53.077Z,13.74
2022-10-14T17:43:19.789Z,15.11
2022-10-14T17:45:45.825Z,15.13
2022-10-14T17:48:11.860Z,15.06
2022-10-14T17:50:37.928Z,15.03
2022-10-14T17:53:03.988Z,14.84
2022-10-14T17:55:30.002Z,14.21
2022-10-14T17:57:56.076Z,15.04
2022-10-14T18:00:22.080Z,14.97
2022-10-14T18:02:48.108Z,14.89
2022-10-14T18:05:14.228Z,14.95
2022-10-14T18:07:40.279Z,15.01
2022-10-14T18:10:06.579Z,14.72
2022-10-14T18:12:32.661Z,14.90
2022-10-14T18:14:58.681Z,14.84
2022-10-14T18:17:25.034Z,14.70
2022-10-14T18:19:52.365Z,14.63
2022-10-14T18:22:18.513Z,14.50
2022-10-14T18:24:44.686Z,13.26
2022-10-14T18:27:10.910Z,14.52
2022-10-14T18:29:37.899Z,14.53
2022-10-14T18:32:04.982Z,14.55
2022-10-14T18:34:31.217Z,14.70
2022-10-14T18:36:57.233Z,14.65
2022-10-14T18:39:23.385Z,14.54
2022-10-14T18:41:49.457Z,14.51
2022-10-14T18:44:15.469Z,14.58
2022-10-14T18:46:41.616Z,14.39
2022-10-14T18:49:09.646Z,14.58
2022-10-14T18:51:37.862Z,14.64
2022-10-14T18:54:07.059Z,14.64
2022-10-14T18:56:37.951Z,14.63
2022-10-14T18:59:09.489Z,14.59
2022-10-14T19:01:37.007Z,14.65
2022-10-14T19:04:05.387Z,14.63
2022-10-14T19:06:32.274Z,14.62
2022-10-14T19:09:00.919Z,14.24
2022-10-14T19:11:27.721Z,14.61
2022-10-14T19:13:55.582Z,14.64
2022-10-14T19:16:26.470Z,14.64
2022-10-14T19:19:00.577Z,13.18
2022-10-14T19:21:29.451Z,14.68
2022-10-14T19:24:00.187Z,14.09
2022-10-14T19:26:30.207Z,14.68
2022-10-14T19:28:56.788Z,14.76
2022-10-14T19:31:24.861Z,14.68
2022-10-14T19:33:51.873Z,14.59
2022-10-14T19:36:19.466Z,14.72
2022-10-14T19:38:56.867Z,14.66
2022-10-14T19:41:27.935Z,14.68
2022-10-14T19:43:55.612Z,14.75
2022-10-14T19:46:26.802Z,14.82
2022-10-14T19:48:57.836Z,14.76
2022-10-14T19:51:24.372Z,14.71
2022-10-14T19:53:50.836Z,14.64
2022-10-14T19:56:16.968Z,14.40
2022-10-14T19:58:44.835Z,14.70
2022-10-14T20:01:16.463Z,14.79
2022-10-14T20:03:42.892Z,14.79
2022-10-14T20:06:10.132Z,14.91
2022-10-14T20:08:36.489Z,14.94
2022-10-14T20:11:06.838Z,14.99
2022-10-14T20:13:33.282Z,14.99
2022-10-14T20:16:00.609Z,14.78
2022-10-14T20:18:27.332Z,14.91
2022-10-14T20:20:53.604Z,14.90
2022-10-14T20:23:20.112Z,14.64
2022-10-14T20:25:46.586Z,15.01
2022-10-14T20:28:13.275Z,14.99
2022-10-14T20:30:40.716Z,15.04
2022-10-14T20:33:07.337Z,15.08
2022-10-14T20:35:33.595Z,14.84
2022-10-14T20:37:59.648Z,15.09
2022-10-14T20:40:25.825Z,14.99
2022-10-14T20:42:51.985Z,15.02
2022-10-14T20:45:18.162Z,15.13
2022-10-14T20:47:44.336Z,15.15
2022-10-14T20:50:10.383Z,14.97
2022-10-14T20:52:36.407Z,14.94
2022-10-14T20:55:02.526Z,14.87
2022-10-14T20:57:28.560Z,14.94
2022-10-14T20:59:54.551Z,14.89
2022-10-14T21:02:21.027Z,14.57
2022-10-14T21:04:47.890Z,14.81
2022-10-14T21:07:14.004Z,14.84
2022-10-14T21:09:40.072Z,14.65
2022-10-14T21:12:06.289Z,14.87
2022-10-14T21:14:32.572Z,14.73
2022-10-14T21:16:58.585Z,14.86
2022-10-14T21:19:24.687Z,14.93
2022-10-14T21:21:50.825Z,14.92
2022-10-14T21:24:18.546Z,14.88
2022-10-14T21:26:47.180Z,15.08
2022-10-14T21:29:13.227Z,15.05
2022-10-14T21:31:40.007Z,15.06
2022-10-14T21:34:06.777Z,15.04
2022-10-14T21:36:34.466Z,15.05
2022-10-14T21:39:04.733Z,15.18
2022-10-14T21:41:31.003Z,15.10
2022-10-14T21:43:58.806Z,15.24
2022-10-14T21:46:26.072Z,15.22
2022-10-14T21:48:56.471Z,15.22
2022-10-14T21:51:24.307Z,15.17
2022-10-14T21:53:50.360Z,14.94
2022-10-14T21:56:16.861Z,15.20
2022-10-14T21:58:43.309Z,15.11
2022-10-14T22:01:13.497Z,15.19
2022-10-14T22:03:40.276Z,15.28
2022-10-14T22:06:15.133Z,15.35
2022-10-14T22:08:43.683Z,15.08
2022-10-14T22:11:20.840Z,15.26
2022-10-14T22:13:47.737Z,15.26
2022-10-14T22:16:16.136Z,15.24
2022-10-14T22:18:45.912Z,14.13
2022-10-14T22:21:14.300Z,15.31
2022-10-14T22:23:40.492Z,15.20
2022-10-14T22:26:09.851Z,15.31
2022-10-14T22:28:36.260Z,15.10
2022-10-14T22:31:08.976Z,15.39
2022-10-14T22:33:37.050Z,15.45
2022-10-14T22:36:10.522Z,15.49
2022-10-14T22:38:37.527Z,15.22
2022-10-14T22:41:04.636Z,15.39
2022-10-14T22:43:31.290Z,15.45
2022-10-14T22:46:02.687Z,15.51
2022-10-14T22:48:29.642Z,15.36
2022-10-14T22:50:56.351Z,15.52
2022-10-14T22:53:22.423Z,15.47
2022-10-14T22:55:52.606Z,15.48
2022-10-14T22:58:18.696Z,15.53
2022-10-14T23:00:45.118Z,14.43
2022-10-14T23:03:11.597Z,15.36
2022-10-14T23:05:37.965Z,15.25
2022-10-14T23:08:09.538Z,15.37
2022-10-14T23:10:38.599Z,15.41
2022-10-14T23:13:05.855Z,15.21
2022-10-14T23:15:32.709Z,14.95
2022-10-14T23:17:58.849Z,15.48
2022-10-14T23:20:25.153Z,15.33
2022-10-14T23:22:51.282Z,15.52
2022-10-14T23:25:17.411Z,15.47
2022-10-14T23:27:43.472Z,15.40
2022-10-14T23:30:09.909Z,15.50
2022-10-14T23:32:36.079Z,15.48
2022-10-14T23:35:02.260Z,15.00
2022-10-14T23:37:28.883Z,15.40
2022-10-14T23:39:54.934Z,15.41
2022-10-14T23:42:20.956Z,15.41
2022-10-14T23:44:47.023Z,15.45
2022-10-14T23:47:13.023Z,15.18
2022-10-14T23:49:39.027Z,15.22
2022-10-14T23:52:05.053Z,14.18
2022-10-14T23:54:31.056Z,15.25
2022-10-14T23:56:57.203Z,14.95
2022-10-14T23:59:23.261Z,15.20
